createdAt,value
2024-04-12T00:01:22.244Z,61.57
2024-04-12T00:04:53.927Z,61.05
2024-04-12T00:08:22.482Z,60.74
2024-04-12T00:11:51.059Z,60.63
2024-04-12T00:15:19.901Z,60.89
2024-04-12T00:18:48.512Z,60.37
2024-04-12T00:22:17.038Z,60.87
2024-04-12T00:25:45.661Z,60.87
2024-04-12T00:29:14.315Z,61.05
2024-04-12T00:32:42.931Z,61.17
2024-04-12T00:36:11.748Z,61.18
2024-04-12T00:39:40.519Z,61.29
2024-04-12T00:43:09.510Z,61.35
2024-04-12T00:46:41.116Z,61.73
2024-04-12T00:50:12.630Z,61.77
2024-04-12T00:53:41.391Z,61.80
2024-04-12T00:57:02.630Z,61.93
2024-04-12T01:00:31.531Z,61.98
2024-04-12T01:04:00.314Z,62.20
2024-04-12T01:07:24.551Z,62.27
2024-04-12T01:10:43.994Z,62.42
2024-04-12T01:14:12.600Z,62.55
2024-04-12T01:17:42.359Z,62.53
2024-04-12T01:21:01.538Z,62.67
2024-04-12T01:24:30.221Z,62.71
2024-04-12T01:27:58.815Z,62.72
2024-04-12T01:31:28.455Z,62.84
2024-04-12T01:34:58.297Z,62.87
2024-04-12T01:38:35.902Z,62.86
2024-04-12T01:42:07.498Z,62.97
2024-04-12T01:45:35.887Z,62.90
2024-04-12T01:49:05.238Z,62.89
2024-04-12T01:52:33.999Z,62.92
2024-04-12T01:56:02.579Z,62.96
2024-04-12T01:59:31.151Z,62.97
2024-04-12T02:02:59.670Z,63.03
2024-04-12T02:06:18.981Z,63.06
2024-04-12T02:09:47.737Z,63.22
2024-04-12T02:13:16.304Z,63.06
2024-04-12T02:16:44.960Z,63.01
2024-04-12T02:20:13.543Z,63.02
2024-04-12T02:23:42.253Z,63.18
2024-04-12T02:27:11.139Z,63.21
2024-04-12T02:30:39.660Z,63.26
2024-04-12T02:34:08.250Z,63.30
2024-04-12T02:37:38.025Z,63.41
2024-04-12T02:41:06.964Z,63.47
2024-04-12T02:44:35.618Z,63.86
2024-04-12T02:48:04.255Z,63.87
2024-04-12T02:51:35.959Z,64.08
2024-04-12T02:55:04.090Z,64.62
2024-04-12T02:58:32.670Z,64.53
2024-04-12T03:02:04.673Z,64.87
2024-04-12T03:05:33.247Z,65.10
2024-04-12T03:08:51.918Z,65.63
2024-04-12T03:12:20.754Z,65.88
2024-04-12T03:15:43.202Z,66.31
2024-04-12T03:19:12.152Z,66.72
2024-04-12T03:22:41.735Z,67.08
2024-04-12T03:30:08.415Z,68.37
2024-04-12T03:33:37.229Z,68.41
2024-04-12T03:37:05.863Z,68.46
2024-04-12T03:40:37.241Z,68.89
2024-04-12T03:44:05.064Z,69.32
2024-04-12T03:47:33.909Z,69.53
2024-04-12T03:51:02.728Z,69.73
2024-04-12T03:54:34.370Z,70.09
2024-04-12T03:58:03.003Z,69.93
2024-04-12T04:01:31.572Z,70.52
2024-04-12T04:05:00.158Z,70.82
2024-04-12T04:08:28.770Z,71.06
2024-04-12T04:11:57.354Z,71.38
2024-04-12T04:15:26.183Z,71.65
2024-04-12T04:18:54.795Z,71.82
2024-04-12T04:22:23.840Z,71.92
2024-04-12T04:25:54.291Z,71.77
2024-04-12T04:29:23.799Z,72.38
2024-04-12T04:32:45.413Z,72.55
2024-04-12T04:36:13.987Z,72.69
2024-04-12T04:39:42.635Z,72.70
2024-04-12T04:43:03.922Z,72.61
2024-04-12T04:46:12.048Z,72.36
2024-04-12T04:49:40.817Z,71.76
2024-04-12T04:53:09.283Z,71.77
2024-04-12T04:56:37.937Z,70.50
2024-04-12T05:00:06.574Z,69.05
2024-04-12T05:03:35.379Z,67.20
2024-04-12T05:07:04.503Z,65.16
2024-04-12T05:10:33.176Z,65.47
2024-04-12T05:14:01.707Z,65.57
2024-04-12T05:17:27.726Z,66.13
2024-04-12T05:21:02.357Z,66.76
2024-04-12T05:24:31.076Z,67.20
2024-04-12T05:28:01.859Z,67.76
2024-04-12T05:31:23.177Z,67.72
2024-04-12T05:34:51.571Z,68.03
2024-04-12T05:38:20.361Z,68.09
2024-04-12T05:41:48.831Z,67.86
2024-04-12T05:45:17.334Z,67.83
2024-04-12T05:48:38.942Z,67.79
2024-04-12T05:52:06.882Z,67.81
2024-04-12T05:55:35.468Z,67.40
2024-04-12T05:59:04.258Z,67.48
2024-04-12T06:02:33.079Z,67.45
2024-04-12T06:06:01.890Z,67.45
2024-04-12T06:09:23.569Z,67.26
2024-04-12T06:12:38.506Z,67.04
2024-04-12T06:15:46.754Z,66.40
2024-04-12T06:19:05.977Z,66.62
2024-04-12T06:22:34.993Z,66.62
2024-04-12T06:26:06.563Z,66.68
2024-04-12T06:29:38.565Z,66.33
2024-04-12T06:33:08.098Z,66.02
2024-04-12T06:36:36.912Z,66.06
2024-04-12T06:40:05.656Z,66.02
2024-04-12T06:43:34.102Z,65.46
2024-04-12T06:47:02.648Z,64.68
2024-04-12T06:50:31.421Z,65.10
2024-04-12T06:54:08.970Z,64.75
2024-04-12T06:57:43.906Z,63.90
2024-04-12T07:01:12.680Z,63.96
2024-04-12T07:04:41.190Z,63.78
2024-04-12T07:08:10.287Z,63.66
2024-04-12T07:11:41.167Z,63.31
2024-04-12T07:15:10.117Z,63.05
2024-04-12T07:18:38.724Z,62.75
2024-04-12T07:22:07.243Z,61.83
2024-04-12T07:25:35.980Z,62.25
2024-04-12T07:29:04.723Z,61.19
2024-04-12T07:32:33.351Z,61.83
2024-04-12T07:36:02.502Z,61.82
2024-04-12T07:39:30.990Z,61.42
2024-04-12T07:42:59.906Z,62.09
2024-04-12T07:46:27.310Z,62.11
2024-04-12T07:49:55.947Z,62.28
2024-04-12T07:53:42.684Z,62.87
2024-04-12T07:57:11.280Z,62.88
2024-04-12T08:00:40.268Z,63.51
2024-04-12T08:04:08.900Z,63.60
2024-04-12T08:07:37.682Z,64.15
2024-04-12T08:10:53.317Z,64.18
2024-04-12T08:14:11.763Z,64.46
2024-04-12T08:17:40.515Z,64.54
2024-04-12T08:21:10.503Z,64.50
2024-04-12T08:24:42.174Z,65.00
2024-04-12T08:28:11.242Z,64.87
2024-04-12T08:31:40.003Z,64.80
2024-04-12T08:35:09.031Z,64.62
2024-04-12T08:38:38.448Z,65.14
2024-04-12T08:42:07.033Z,65.54
2024-04-12T08:45:36.128Z,65.41
2024-04-12T08:49:05.112Z,65.44
2024-04-12T08:52:34.488Z,65.59
2024-04-12T08:56:06.268Z,66.23
2024-04-12T08:59:34.791Z,66.02
2024-04-12T09:03:03.501Z,66.08
2024-04-12T09:06:35.949Z,66.48
2024-04-12T09:10:04.539Z,65.72
2024-04-12T09:13:33.382Z,65.30
2024-04-12T09:17:08.078Z,65.40
2024-04-12T09:20:37.111Z,65.51
2024-04-12T09:24:06.010Z,65.51
2024-04-12T09:27:35.126Z,65.11
2024-04-12T09:31:02.109Z,65.53
2024-04-12T09:34:20.646Z,64.67
2024-04-12T09:37:50.556Z,65.04
2024-04-12T09:41:02.170Z,65.04
2024-04-12T09:44:30.791Z,65.13
2024-04-12T09:47:57.959Z,64.68
2024-04-12T09:51:25.710Z,64.58
2024-04-12T09:54:53.123Z,64.60
2024-04-12T09:58:18.856Z,64.59
2024-04-12T10:01:45.998Z,65.27
2024-04-12T10:04:52.575Z,65.55
2024-04-12T10:08:19.831Z,65.79
2024-04-12T10:11:46.704Z,66.00
2024-04-12T10:15:14.200Z,66.20
2024-04-12T10:18:50.546Z,65.70
2024-04-12T10:22:17.729Z,65.68
2024-04-12T10:25:33.564Z,65.59
2024-04-12T10:29:00.838Z,65.33
2024-04-12T10:32:20.666Z,65.02
2024-04-12T10:36:07.436Z,64.50
2024-04-12T10:39:36.266Z,64.33
2024-04-12T10:43:05.828Z,63.67
2024-04-12T10:46:34.841Z,63.71
2024-04-12T10:50:03.849Z,64.06
2024-04-12T10:53:32.663Z,64.18
2024-04-12T10:57:03.403Z,63.84
2024-04-12T11:00:37.409Z,64.05
2024-04-12T11:04:06.341Z,64.41
2024-04-12T11:07:35.216Z,64.44
2024-04-12T11:11:04.003Z,63.47
2024-04-12T11:14:38.720Z,63.23
2024-04-12T11:18:05.939Z,63.33
2024-04-12T11:21:33.317Z,63.08
2024-04-12T11:25:00.220Z,63.18
2024-04-12T11:28:27.222Z,62.99
2024-04-12T11:31:55.959Z,62.01
2024-04-12T11:35:25.000Z,61.92
2024-04-12T11:38:53.762Z,60.96
2024-04-12T11:42:22.401Z,61.20
2024-04-12T11:45:51.296Z,61.73
2024-04-12T11:49:19.838Z,62.08
2024-04-12T11:52:48.401Z,62.36
2024-04-12T11:56:10.502Z,61.91
2024-04-12T11:59:39.157Z,61.21
2024-04-12T12:03:07.725Z,62.12
2024-04-12T12:06:36.312Z,62.62
2024-04-12T12:09:55.135Z,62.73
2024-04-12T12:13:23.669Z,62.74
2024-04-12T12:16:52.186Z,62.37
2024-04-12T12:20:20.794Z,62.05
2024-04-12T12:23:31.810Z,62.31
2024-04-12T12:27:00.525Z,62.95
2024-04-12T12:30:29.272Z,63.20
2024-04-12T12:33:57.798Z,63.26
2024-04-12T12:37:26.485Z,63.50
2024-04-12T12:40:55.053Z,63.81
2024-04-12T12:44:23.605Z,64.31
2024-04-12T12:47:54.480Z,64.40
2024-04-12T12:51:23.336Z,64.53
2024-04-12T12:54:51.875Z,63.81
2024-04-12T12:58:32.904Z,63.71
2024-04-12T13:02:04.166Z,63.39
2024-04-12T13:05:35.720Z,63.43
2024-04-12T13:09:04.693Z,63.59
2024-04-12T13:12:33.258Z,63.76
2024-04-12T13:16:01.840Z,63.26
2024-04-12T13:19:31.506Z,63.49
2024-04-12T13:23:00.302Z,63.80
2024-04-12T13:26:28.790Z,63.13
2024-04-12T13:29:57.488Z,63.31
2024-04-12T13:33:26.335Z,63.28
2024-04-12T13:36:55.022Z,62.66
2024-04-12T13:40:23.506Z,62.02
2024-04-12T13:43:52.338Z,61.74
2024-04-12T13:47:19.842Z,61.68
2024-04-12T13:50:46.975Z,61.49
2024-04-12T13:54:15.656Z,61.30
2024-04-12T13:57:37.226Z,60.76
2024-04-12T14:01:06.221Z,60.21
2024-04-12T14:04:34.875Z,60.90
2024-04-12T14:08:03.624Z,60.96
2024-04-12T14:11:32.196Z,60.98
2024-04-12T14:15:00.963Z,61.20
2024-04-12T14:18:29.905Z,60.64
2024-04-12T14:21:58.468Z,60.26
2024-04-12T14:25:27.135Z,60.67
2024-04-12T14:28:55.654Z,61.06
2024-04-12T14:32:27.335Z,60.86
2024-04-12T14:35:58.891Z,60.11
2024-04-12T14:39:27.663Z,60.41
2024-04-12T14:42:48.539Z,60.79
2024-04-12T14:46:17.053Z,60.53
2024-04-12T14:49:45.602Z,60.61
2024-04-12T14:53:14.305Z,59.41
2024-04-12T14:56:44.843Z,59.96
2024-04-12T15:00:14.859Z,58.54
2024-04-12T15:03:34.938Z,59.16
2024-04-12T15:07:02.468Z,59.92
2024-04-12T15:10:29.462Z,59.93
2024-04-12T15:13:36.151Z,60.61
2024-04-12T15:17:01.978Z,60.95
2024-04-12T15:20:29.118Z,61.31
2024-04-12T15:23:56.582Z,61.59
2024-04-12T15:27:23.558Z,61.13
2024-04-12T15:30:50.478Z,61.40
2024-04-12T15:34:17.199Z,61.41
2024-04-12T15:37:44.688Z,61.75
2024-04-12T15:41:11.735Z,61.68
2024-04-12T15:44:21.378Z,61.64
2024-04-12T15:47:30.176Z,61.84
2024-04-12T15:50:41.507Z,62.14
2024-04-12T15:54:10.101Z,62.12
2024-04-12T15:57:30.562Z,62.72
2024-04-12T16:00:57.840Z,63.14
2024-04-12T16:04:17.835Z,63.23
2024-04-12T16:07:44.780Z,63.53
2024-04-12T16:11:15.252Z,63.85
2024-04-12T16:14:43.994Z,64.00
2024-04-12T16:18:11.622Z,64.29
2024-04-12T16:21:41.191Z,64.66
2024-04-12T16:25:09.710Z,65.02
2024-04-12T16:28:38.151Z,65.43
2024-04-12T16:32:07.105Z,65.69
2024-04-12T16:35:38.037Z,65.54
2024-04-12T16:39:06.738Z,66.03
2024-04-12T16:42:35.487Z,66.01
2024-04-12T16:46:04.072Z,65.95
2024-04-12T16:49:32.466Z,66.28
2024-04-12T16:53:01.195Z,66.52
2024-04-12T16:56:30.047Z,66.72
2024-04-12T16:59:59.660Z,67.10
2024-04-12T17:03:28.494Z,67.10
2024-04-12T17:06:58.362Z,67.19
2024-04-12T17:13:54.275Z,67.25
2024-04-12T17:17:24.001Z,67.40
2024-04-12T17:20:55.957Z,67.71
2024-04-12T17:27:52.045Z,68.09
2024-04-12T17:31:20.636Z,68.40
2024-04-12T17:34:49.174Z,68.40
2024-04-12T17:38:17.760Z,68.64
2024-04-12T17:41:46.548Z,68.81
2024-04-12T17:45:15.543Z,68.94
2024-04-12T17:48:44.371Z,69.35
2024-04-12T17:52:13.083Z,69.62
2024-04-12T17:55:41.688Z,69.39
2024-04-12T17:59:10.216Z,69.74
2024-04-12T18:02:38.892Z,70.27
2024-04-12T18:06:07.472Z,70.48
2024-04-12T18:09:31.603Z,70.83
2024-04-12T18:13:00.546Z,71.16
2024-04-12T18:16:29.166Z,70.95
2024-04-12T18:19:58.031Z,71.34
2024-04-12T18:23:26.680Z,71.60
2024-04-12T18:26:55.226Z,71.48
2024-04-12T18:30:23.845Z,71.69
2024-04-12T18:33:52.632Z,71.95
2024-04-12T18:37:33.542Z,72.34
2024-04-12T18:41:00.925Z,72.11
2024-04-12T18:44:07.403Z,72.93
2024-04-12T18:47:36.396Z,72.62
2024-04-12T18:51:05.431Z,73.22
2024-04-12T18:54:33.940Z,73.55
2024-04-12T18:57:54.876Z,73.63
2024-04-12T19:01:29.281Z,74.08
2024-04-12T19:04:58.216Z,74.31
2024-04-12T19:08:26.766Z,74.59
2024-04-12T19:11:55.308Z,74.73
2024-04-12T19:15:24.139Z,74.97
2024-04-12T19:18:52.559Z,75.08
2024-04-12T19:22:21.693Z,75.18
2024-04-12T19:25:50.231Z,75.50
2024-04-12T19:29:21.348Z,75.75
2024-04-12T19:32:51.138Z,76.01
2024-04-12T19:36:19.719Z,76.15
2024-04-12T19:39:48.531Z,76.16
2024-04-12T19:43:17.159Z,76.21
2024-04-12T19:46:48.674Z,76.41
2024-04-12T19:50:17.550Z,76.82
2024-04-12T19:53:45.167Z,76.89
2024-04-12T19:57:13.832Z,76.89
2024-04-12T20:00:43.462Z,76.98
2024-04-12T20:04:12.166Z,76.44
2024-04-12T20:07:40.619Z,76.91
2024-04-12T20:11:09.751Z,77.09
2024-04-12T20:14:38.612Z,77.06
2024-04-12T20:18:06.728Z,77.34
2024-04-12T20:21:37.640Z,77.56
2024-04-12T20:28:55.189Z,78.46
2024-04-12T20:32:23.858Z,77.95
2024-04-12T20:35:55.875Z,78.00
2024-04-12T20:39:24.746Z,78.06
2024-04-12T20:42:53.762Z,78.22
2024-04-12T20:46:22.578Z,78.52
2024-04-12T20:49:51.283Z,78.70
2024-04-12T20:53:11.854Z,78.38
2024-04-12T20:56:40.731Z,78.05
2024-04-12T21:00:11.719Z,78.02
2024-04-12T21:03:40.501Z,77.97
2024-04-12T21:07:13.701Z,77.30
2024-04-12T21:10:42.915Z,77.89
2024-04-12T21:14:11.513Z,77.88
2024-04-12T21:17:40.427Z,77.80
2024-04-12T21:21:09.829Z,77.69
2024-04-12T21:24:38.430Z,77.61
2024-04-12T21:28:07.058Z,77.64
2024-04-12T21:31:38.726Z,78.06
2024-04-12T21:35:07.307Z,78.57
2024-04-12T21:38:36.186Z,78.54
2024-04-12T21:42:06.903Z,78.52
2024-04-12T21:45:35.546Z,78.34
2024-04-12T21:49:04.109Z,78.05
2024-04-12T21:52:32.632Z,78.42
2024-04-12T21:55:54.010Z,78.54
2024-04-12T21:59:22.497Z,78.66
2024-04-12T22:02:51.041Z,78.87
2024-04-12T22:06:19.906Z,79.02
2024-04-12T22:09:48.514Z,79.21
2024-04-12T22:13:17.063Z,79.21
2024-04-12T22:16:57.525Z,79.37
2024-04-12T22:20:26.068Z,79.60
2024-04-12T22:23:54.525Z,79.41
2024-04-12T22:27:23.319Z,79.63
2024-04-12T22:30:52.145Z,79.66
2024-04-12T22:34:13.596Z,79.91
2024-04-12T22:37:42.305Z,79.99
2024-04-12T22:41:11.306Z,80.10
2024-04-12T22:44:40.096Z,80.12
2024-04-12T22:48:08.787Z,80.17
2024-04-12T22:51:38.213Z,80.22
2024-04-12T22:55:06.626Z,80.23
2024-04-12T22:58:35.572Z,80.32
2024-04-12T23:01:54.131Z,80.42
2024-04-12T23:05:22.841Z,80.50
2024-04-12T23:08:51.914Z,80.70
2024-04-12T23:12:20.840Z,80.81
2024-04-12T23:15:42.049Z,80.95
2024-04-12T23:19:10.903Z,81.14
2024-04-12T23:22:39.461Z,81.02
2024-04-12T23:26:08.349Z,81.02
2024-04-12T23:29:36.885Z,81.10
2024-04-12T23:32:58.499Z,81.06
2024-04-12T23:36:27.807Z,81.16
2024-04-12T23:39:56.557Z,81.16
2024-04-12T23:43:25.247Z,81.46
2024-04-12T23:46:53.695Z,81.61
2024-04-12T23:50:22.531Z,81.57
2024-04-12T23:53:51.321Z,81.67
2024-04-12T23:57:02.842Z,81.05
